createdAt,value
2022-07-25T16:10:20.829Z,18.87
2022-07-25T16:12:47.883Z,18.95
2022-07-25T16:15:15.041Z,18.93
2022-07-25T16:17:43.077Z,18.98
2022-07-25T16:20:11.274Z,18.99
2022-07-25T16:22:39.516Z,19.00
2022-07-25T16:25:07.502Z,19.02
2022-07-25T16:27:35.265Z,19.02
2022-07-25T16:30:02.235Z,19.05
2022-07-25T16:32:29.450Z,19.03
2022-07-25T16:34:56.482Z,19.11
2022-07-25T16:37:23.648Z,19.00
2022-07-25T16:39:50.805Z,19.12
2022-07-25T16:42:17.844Z,19.04
2022-07-25T16:44:45.075Z,19.12
2022-07-25T16:47:12.147Z,19.16
2022-07-25T16:49:39.201Z,19.02
2022-07-25T16:52:06.705Z,19.14
2022-07-25T16:54:33.809Z,19.17
2022-07-25T16:57:01.590Z,19.20
2022-07-25T16:59:28.738Z,18.95
2022-07-25T17:01:55.980Z,19.24
2022-07-25T17:04:23.569Z,19.13
2022-07-25T17:06:50.679Z,19.27
2022-07-25T17:09:17.769Z,19.27
2022-07-25T17:11:44.830Z,19.24
2022-07-25T17:14:11.976Z,19.32
2022-07-25T17:16:40.793Z,19.36
2022-07-25T17:19:07.968Z,19.25
2022-07-25T17:21:35.253Z,19.39
2022-07-25T17:24:02.509Z,19.41
2022-07-25T17:26:29.773Z,19.42
2022-07-25T17:28:56.792Z,19.47
2022-07-25T17:31:25.199Z,19.48
2022-07-25T17:33:52.285Z,19.50
2022-07-25T17:36:19.315Z,19.51
2022-07-25T17:38:46.696Z,19.56
2022-07-25T17:41:13.717Z,19.57
2022-07-25T17:43:41.495Z,19.57
2022-07-25T17:46:11.124Z,19.58
2022-07-25T17:48:38.274Z,19.56
2022-07-25T17:51:06.244Z,19.59
2022-07-25T17:53:33.428Z,19.53
2022-07-25T17:56:00.483Z,19.56
2022-07-25T17:58:27.532Z,19.55
2022-07-25T18:00:59.531Z,19.52
2022-07-25T18:03:28.803Z,19.49
2022-07-25T18:05:56.134Z,19.47
2022-07-25T18:08:23.165Z,19.43
2022-07-25T18:10:50.476Z,19.43
2022-07-25T18:13:38.259Z,19.39
2022-07-25T18:16:25.795Z,19.37
2022-07-25T18:19:13.020Z,19.35
2022-07-25T18:22:00.127Z,19.35
2022-07-25T18:24:47.324Z,19.32
2022-07-25T18:27:34.329Z,19.31
2022-07-25T18:30:25.893Z,19.23
2022-07-25T18:33:15.652Z,19.09
2022-07-25T18:36:07.353Z,19.28
2022-07-25T18:38:55.463Z,19.05
2022-07-25T18:41:43.853Z,19.24
2022-07-25T18:44:30.864Z,19.20
2022-07-25T18:47:18.369Z,19.20
2022-07-25T18:50:05.713Z,19.15
2022-07-25T18:52:52.891Z,19.14
2022-07-25T18:55:39.768Z,19.09
2022-07-25T18:58:26.833Z,19.13
2022-07-25T19:01:14.044Z,18.96
2022-07-25T19:04:01.215Z,19.08
2022-07-25T19:06:48.209Z,18.83
2022-07-25T19:09:35.458Z,19.05
2022-07-25T19:12:22.525Z,19.04
2022-07-25T19:14:49.523Z,18.90
2022-07-25T19:17:16.738Z,19.02
2022-07-25T19:19:44.080Z,18.90
2022-07-25T19:22:11.190Z,19.03
2022-07-25T19:24:38.421Z,19.03
2022-07-25T19:27:05.902Z,19.05
2022-07-25T19:29:32.988Z,19.05
2022-07-25T19:32:00.108Z,19.03
2022-07-25T19:34:27.306Z,19.00
2022-07-25T19:36:56.525Z,18.98
2022-07-25T19:39:24.616Z,19.01
2022-07-25T19:41:52.389Z,19.00
2022-07-25T19:44:20.089Z,18.90
2022-07-25T19:46:48.775Z,19.03
2022-07-25T19:49:15.944Z,19.01
2022-07-25T19:51:43.201Z,19.00
2022-07-25T19:54:10.698Z,18.89
2022-07-25T19:56:38.094Z,18.97
2022-07-25T19:59:05.839Z,18.92
2022-07-25T20:01:39.479Z,18.98
2022-07-25T20:04:09.248Z,18.98
2022-07-25T20:06:36.613Z,18.97
2022-07-25T20:09:04.885Z,18.96
2022-07-25T20:11:32.463Z,18.95
2022-07-25T20:14:00.525Z,18.96
2022-07-25T20:16:27.826Z,18.94
2022-07-25T20:18:55.140Z,18.94
2022-07-25T20:21:22.640Z,18.93
2022-07-25T20:23:49.641Z,18.92
2022-07-25T20:26:16.714Z,18.91
2022-07-25T20:28:44.085Z,18.89
2022-07-25T20:31:11.275Z,18.88
2022-07-25T20:33:38.692Z,18.84
2022-07-25T20:36:05.768Z,18.85
2022-07-25T20:38:33.026Z,18.79
2022-07-25T20:41:20.827Z,18.79
2022-07-25T20:44:07.996Z,18.76
2022-07-25T20:46:55.890Z,18.75
2022-07-25T20:49:43.911Z,18.77
2022-07-25T20:52:31.100Z,18.74
2022-07-25T20:55:18.062Z,18.71
2022-07-25T20:58:05.528Z,18.75
2022-07-25T21:00:52.707Z,18.68
2022-07-25T21:03:39.911Z,18.71
2022-07-25T21:06:27.551Z,18.72
2022-07-25T21:09:15.044Z,18.68
2022-07-25T21:12:02.110Z,18.68
2022-07-25T21:14:49.202Z,18.70
2022-07-25T21:17:36.143Z,18.67
2022-07-25T21:20:24.367Z,18.65
2022-07-25T21:23:11.330Z,18.66
2022-07-25T21:25:58.517Z,18.68
2022-07-25T21:28:45.470Z,18.64
2022-07-25T21:31:33.221Z,18.55
2022-07-25T21:34:21.208Z,18.67
2022-07-25T21:37:08.518Z,18.63
2022-07-25T21:39:55.518Z,18.65
2022-07-25T21:42:42.520Z,18.65
2022-07-25T21:45:31.713Z,18.65
2022-07-25T21:48:21.881Z,18.61
2022-07-25T21:51:09.198Z,18.62
2022-07-25T21:54:06.580Z,18.61
2022-07-25T21:56:53.484Z,18.62
2022-07-25T21:59:40.637Z,18.56
2022-07-25T22:02:27.636Z,18.59
2022-07-25T22:05:14.733Z,18.59
2022-07-25T22:08:02.974Z,18.47
2022-07-25T22:10:50.132Z,18.61
2022-07-25T22:13:41.413Z,18.58
2022-07-25T22:16:30.350Z,18.59
2022-07-25T22:19:21.902Z,18.47
2022-07-25T22:22:10.332Z,18.55
2022-07-25T22:24:57.181Z,18.44
2022-07-25T22:27:44.252Z,18.56
2022-07-25T22:30:31.837Z,18.57
2022-07-25T22:33:19.005Z,18.57
2022-07-25T22:36:05.973Z,18.56
2022-07-25T22:38:53.082Z,18.54
2022-07-25T22:41:39.964Z,18.53
2022-07-25T22:44:27.743Z,18.47
2022-07-25T22:47:14.698Z,18.53
2022-07-25T22:50:01.814Z,18.46
2022-07-25T22:52:48.757Z,18.41
2022-07-25T22:55:35.786Z,18.52
2022-07-25T22:58:22.751Z,18.55
2022-07-25T23:01:09.848Z,18.55
2022-07-25T23:03:57.244Z,18.20
2022-07-25T23:06:44.419Z,18.55
2022-07-25T23:09:36.479Z,18.56
2022-07-25T23:12:24.857Z,18.54
2022-07-25T23:15:11.825Z,18.50
2022-07-25T23:17:58.925Z,18.30
2022-07-25T23:20:45.802Z,18.50
2022-07-25T23:23:33.253Z,18.47
2022-07-25T23:26:20.209Z,18.46
2022-07-25T23:29:07.684Z,18.43
2022-07-25T23:31:54.741Z,18.43
2022-07-25T23:34:41.978Z,18.40
2022-07-25T23:37:29.229Z,18.26
2022-07-25T23:40:16.329Z,18.41
2022-07-25T23:43:03.317Z,18.40
2022-07-25T23:45:50.797Z,18.35
2022-07-25T23:48:38.086Z,18.34
2022-07-25T23:51:25.534Z,18.33
2022-07-25T23:54:12.533Z,18.34
2022-07-25T23:56:59.626Z,18.34
2022-07-25T23:59:46.624Z,18.35
